sensor_id;sensor_type;location;lat;lon;timestamp;temperature;humidity
22996;DHT22;11664;49.774;8.650;2023-06-14T00:00:41;19.90;68.40
22996;DHT22;11664;49.774;8.650;2023-06-14T00:03:14;19.80;69.00
22996;DHT22;11664;49.774;8.650;2023-06-14T00:05:45;19.80;68.50
22996;DHT22;11664;49.774;8.650;2023-06-14T00:08:12;19.60;69.70
22996;DHT22;11664;49.774;8.650;2023-06-14T00:10:41;19.90;68.80
22996;DHT22;11664;49.774;8.650;2023-06-14T00:13:16;19.80;70.00
22996;DHT22;11664;49.774;8.650;2023-06-14T00:15:42;19.80;69.80
22996;DHT22;11664;49.774;8.650;2023-06-14T00:18:08;19.90;68.90
22996;DHT22;11664;49.774;8.650;2023-06-14T00:20:40;19.80;69.30
22996;DHT22;11664;49.774;8.650;2023-06-14T00:23:07;19.80;69.30
22996;DHT22;11664;49.774;8.650;2023-06-14T00:25:33;19.80;69.80
22996;DHT22;11664;49.774;8.650;2023-06-14T00:28:02;19.70;70.10
22996;DHT22;11664;49.774;8.650;2023-06-14T00:30:27;19.70;70.30
22996;DHT22;11664;49.774;8.650;2023-06-14T00:32:55;19.60;70.50
22996;DHT22;11664;49.774;8.650;2023-06-14T00:35:30;19.50;70.00
22996;DHT22;11664;49.774;8.650;2023-06-14T00:37:56;19.50;70.10
22996;DHT22;11664;49.774;8.650;2023-06-14T00:40:24;19.40;70.80
22996;DHT22;11664;49.774;8.650;2023-06-14T00:42:50;19.40;71.80
22996;DHT22;11664;49.774;8.650;2023-06-14T00:45:19;19.20;71.40
22996;DHT22;11664;49.774;8.650;2023-06-14T00:47:48;19.40;70.70
22996;DHT22;11664;49.774;8.650;2023-06-14T00:50:23;19.30;70.90
22996;DHT22;11664;49.774;8.650;2023-06-14T00:52:49;19.30;71.60
22996;DHT22;11664;49.774;8.650;2023-06-14T00:55:18;19.20;71.80
22996;DHT22;11664;49.774;8.650;2023-06-14T00:57:43;19.20;71.60
22996;DHT22;11664;49.774;8.650;2023-06-14T01:00:18;19.20;72.10
22996;DHT22;11664;49.774;8.650;2023-06-14T01:02:43;19.20;71.90
22996;DHT22;11664;49.774;8.650;2023-06-14T01:05:16;19.20;71.70
22996;DHT22;11664;49.774;8.650;2023-06-14T01:11:02;19.20;72.70
22996;DHT22;11664;49.774;8.650;2023-06-14T01:13:38;19.20;71.80
22996;DHT22;11664;49.774;8.650;2023-06-14T01:16:06;19.20;71.60
22996;DHT22;11664;49.774;8.650;2023-06-14T01:18:33;19.20;72.00
22996;DHT22;11664;49.774;8.650;2023-06-14T01:20:59;19.10;72.90
22996;DHT22;11664;49.774;8.650;2023-06-14T01:23:30;19.00;73.00
22996;DHT22;11664;49.774;8.650;2023-06-14T01:26:03;19.00;72.70
22996;DHT22;11664;49.774;8.650;2023-06-14T01:28:31;19.10;73.10
22996;DHT22;11664;49.774;8.650;2023-06-14T01:31:00;19.00;73.70
22996;DHT22;11664;49.774;8.650;2023-06-14T01:33:29;19.00;73.50
22996;DHT22;11664;49.774;8.650;2023-06-14T01:35:59;19.00;73.50
22996;DHT22;11664;49.774;8.650;2023-06-14T01:38:27;18.90;73.80
22996;DHT22;11664;49.774;8.650;2023-06-14T01:41:00;18.80;73.90
22996;DHT22;11664;49.774;8.650;2023-06-14T01:43:40;18.80;73.90
22996;DHT22;11664;49.774;8.650;2023-06-14T01:46:06;18.80;74.20
22996;DHT22;11664;49.774;8.650;2023-06-14T01:48:39;18.80;74.20
22996;DHT22;11664;49.774;8.650;2023-06-14T01:51:05;18.70;73.90
22996;DHT22;11664;49.774;8.650;2023-06-14T01:53:31;18.70;73.80
22996;DHT22;11664;49.774;8.650;2023-06-14T01:56:14;18.70;74.20
22996;DHT22;11664;49.774;8.650;2023-06-14T01:58:40;18.60;74.30
22996;DHT22;11664;49.774;8.650;2023-06-14T02:01:06;18.60;74.30
22996;DHT22;11664;49.774;8.650;2023-06-14T02:03:35;18.60;74.70
22996;DHT22;11664;49.774;8.650;2023-06-14T02:06:09;18.60;74.50
22996;DHT22;11664;49.774;8.650;2023-06-14T02:08:38;18.50;74.40
22996;DHT22;11664;49.774;8.650;2023-06-14T02:11:28;18.50;74.90
22996;DHT22;11664;49.774;8.650;2023-06-14T02:14:03;18.50;75.40
22996;DHT22;11664;49.774;8.650;2023-06-14T02:16:29;18.40;75.70
22996;DHT22;11664;49.774;8.650;2023-06-14T02:19:10;18.30;76.10
22996;DHT22;11664;49.774;8.650;2023-06-14T02:21:36;18.30;76.00
22996;DHT22;11664;49.774;8.650;2023-06-14T02:24:01;18.30;75.60
22996;DHT22;11664;49.774;8.650;2023-06-14T02:26:27;18.30;75.80
22996;DHT22;11664;49.774;8.650;2023-06-14T02:29:00;18.30;76.40
22996;DHT22;11664;49.774;8.650;2023-06-14T02:31:29;18.30;76.30
22996;DHT22;11664;49.774;8.650;2023-06-14T02:33:55;18.20;76.20
22996;DHT22;11664;49.774;8.650;2023-06-14T02:36:25;18.20;76.30
22996;DHT22;11664;49.774;8.650;2023-06-14T02:38:54;18.10;77.20
22996;DHT22;11664;49.774;8.650;2023-06-14T02:41:26;18.10;77.60
22996;DHT22;11664;49.774;8.650;2023-06-14T02:43:58;18.10;77.10
22996;DHT22;11664;49.774;8.650;2023-06-14T02:46:35;18.00;77.30
22996;DHT22;11664;49.774;8.650;2023-06-14T02:49:07;18.00;77.60
22996;DHT22;11664;49.774;8.650;2023-06-14T02:51:33;18.00;78.00
22996;DHT22;11664;49.774;8.650;2023-06-14T02:54:03;17.90;78.10
22996;DHT22;11664;49.774;8.650;2023-06-14T02:56:29;17.90;78.20
22996;DHT22;11664;49.774;8.650;2023-06-14T02:59:04;17.90;78.50
22996;DHT22;11664;49.774;8.650;2023-06-14T03:01:30;17.80;78.30
22996;DHT22;11664;49.774;8.650;2023-06-14T03:04:02;17.80;78.80
22996;DHT22;11664;49.774;8.650;2023-06-14T03:06:38;17.70;79.40
22996;DHT22;11664;49.774;8.650;2023-06-14T03:09:10;17.70;79.30
22996;DHT22;11664;49.774;8.650;2023-06-14T03:11:39;17.70;79.70
22996;DHT22;11664;49.774;8.650;2023-06-14T03:14:07;17.50;79.90
22996;DHT22;11664;49.774;8.650;2023-06-14T03:16:39;17.60;81.00
22996;DHT22;11664;49.774;8.650;2023-06-14T03:19:12;17.50;80.80
22996;DHT22;11664;49.774;8.650;2023-06-14T03:21:41;17.40;81.00
22996;DHT22;11664;49.774;8.650;2023-06-14T03:24:15;17.40;81.50
22996;DHT22;11664;49.774;8.650;2023-06-14T03:26:47;17.30;82.00
22996;DHT22;11664;49.774;8.650;2023-06-14T03:29:22;17.20;82.70
22996;DHT22;11664;49.774;8.650;2023-06-14T03:32:07;17.20;82.60
22996;DHT22;11664;49.774;8.650;2023-06-14T03:34:33;17.10;83.80
22996;DHT22;11664;49.774;8.650;2023-06-14T03:37:04;17.00;84.40
22996;DHT22;11664;49.774;8.650;2023-06-14T03:39:30;17.10;84.10
22996;DHT22;11664;49.774;8.650;2023-06-14T03:41:55;17.10;84.60
22996;DHT22;11664;49.774;8.650;2023-06-14T03:44:26;17.10;84.60
22996;DHT22;11664;49.774;8.650;2023-06-14T03:46:58;17.10;84.80
22996;DHT22;11664;49.774;8.650;2023-06-14T03:49:33;17.10;85.00
22996;DHT22;11664;49.774;8.650;2023-06-14T03:51:58;17.10;85.10
22996;DHT22;11664;49.774;8.650;2023-06-14T03:54:42;17.00;85.30
22996;DHT22;11664;49.774;8.650;2023-06-14T03:57:15;17.00;85.60
22996;DHT22;11664;49.774;8.650;2023-06-14T03:59:41;17.00;86.20
22996;DHT22;11664;49.774;8.650;2023-06-14T04:02:09;16.90;86.70
22996;DHT22;11664;49.774;8.650;2023-06-14T04:04:38;17.00;87.10
22996;DHT22;11664;49.774;8.650;2023-06-14T04:07:11;16.90;87.10
22996;DHT22;11664;49.774;8.650;2023-06-14T04:09:37;16.90;87.30
22996;DHT22;11664;49.774;8.650;2023-06-14T04:12:09;17.00;87.20
22996;DHT22;11664;49.774;8.650;2023-06-14T04:14:40;17.00;87.20
22996;DHT22;11664;49.774;8.650;2023-06-14T04:17:06;17.00;87.50
22996;DHT22;11664;49.774;8.650;2023-06-14T04:19:38;16.90;87.90
22996;DHT22;11664;49.774;8.650;2023-06-14T04:22:03;16.90;88.40
22996;DHT22;11664;49.774;8.650;2023-06-14T04:24:29;16.90;88.60
22996;DHT22;11664;49.774;8.650;2023-06-14T04:27:00;16.90;89.10
22996;DHT22;11664;49.774;8.650;2023-06-14T04:29:32;16.90;89.40
22996;DHT22;11664;49.774;8.650;2023-06-14T04:32:01;16.80;89.80
22996;DHT22;11664;49.774;8.650;2023-06-14T04:34:32;16.90;90.00
22996;DHT22;11664;49.774;8.650;2023-06-14T04:37:02;16.90;90.00
22996;DHT22;11664;49.774;8.650;2023-06-14T04:39:44;16.80;90.50
22996;DHT22;11664;49.774;8.650;2023-06-14T04:42:19;16.80;90.50
22996;DHT22;11664;49.774;8.650;2023-06-14T04:44:49;16.90;90.50
22996;DHT22;11664;49.774;8.650;2023-06-14T04:47:17;16.80;90.80
22996;DHT22;11664;49.774;8.650;2023-06-14T04:49:43;16.90;90.60
22996;DHT22;11664;49.774;8.650;2023-06-14T04:52:10;16.80;90.80
22996;DHT22;11664;49.774;8.650;2023-06-14T04:54:48;16.70;91.00
22996;DHT22;11664;49.774;8.650;2023-06-14T04:57:17;16.60;91.20
22996;DHT22;11664;49.774;8.650;2023-06-14T04:59:45;16.70;91.70
22996;DHT22;11664;49.774;8.650;2023-06-14T05:02:17;16.60;91.60
22996;DHT22;11664;49.774;8.650;2023-06-14T05:04:55;16.60;92.00
22996;DHT22;11664;49.774;8.650;2023-06-14T05:07:25;16.70;92.10
22996;DHT22;11664;49.774;8.650;2023-06-14T05:09:56;16.70;91.90
22996;DHT22;11664;49.774;8.650;2023-06-14T05:12:22;16.70;92.10
22996;DHT22;11664;49.774;8.650;2023-06-14T05:18:09;16.90;92.40
22996;DHT22;11664;49.774;8.650;2023-06-14T05:20:38;16.90;92.30
22996;DHT22;11664;49.774;8.650;2023-06-14T05:23:03;16.90;92.40
22996;DHT22;11664;49.774;8.650;2023-06-14T05:25:29;16.90;92.30
22996;DHT22;11664;49.774;8.650;2023-06-14T05:27:55;17.00;92.60
22996;DHT22;11664;49.774;8.650;2023-06-14T05:30:20;17.00;92.50
22996;DHT22;11664;49.774;8.650;2023-06-14T05:32:46;17.00;92.70
22996;DHT22;11664;49.774;8.650;2023-06-14T05:35:11;17.10;92.80
22996;DHT22;11664;49.774;8.650;2023-06-14T05:37:37;17.10;92.40
22996;DHT22;11664;49.774;8.650;2023-06-14T05:40:03;17.10;93.00
22996;DHT22;11664;49.774;8.650;2023-06-14T05:42:33;17.20;92.70
22996;DHT22;11664;49.774;8.650;2023-06-14T05:44:58;17.30;93.00
22996;DHT22;11664;49.774;8.650;2023-06-14T05:47:24;17.40;92.80
22996;DHT22;11664;49.774;8.650;2023-06-14T05:49:49;17.40;92.70
22996;DHT22;11664;49.774;8.650;2023-06-14T05:52:15;17.40;92.80
22996;DHT22;11664;49.774;8.650;2023-06-14T05:54:43;17.40;93.10
22996;DHT22;11664;49.774;8.650;2023-06-14T05:57:10;17.40;92.90
22996;DHT22;11664;49.774;8.650;2023-06-14T05:59:38;17.50;93.00
22996;DHT22;11664;49.774;8.650;2023-06-14T06:02:04;17.50;92.60
22996;DHT22;11664;49.774;8.650;2023-06-14T06:04:30;17.60;92.70
22996;DHT22;11664;49.774;8.650;2023-06-14T06:06:56;17.70;92.90
22996;DHT22;11664;49.774;8.650;2023-06-14T06:09:21;17.70;92.30
22996;DHT22;11664;49.774;8.650;2023-06-14T06:11:47;17.80;92.80
22996;DHT22;11664;49.774;8.650;2023-06-14T06:14:12;17.80;92.60
22996;DHT22;11664;49.774;8.650;2023-06-14T06:16:38;17.90;92.10
22996;DHT22;11664;49.774;8.650;2023-06-14T06:19:03;17.90;92.20
22996;DHT22;11664;49.774;8.650;2023-06-14T06:21:29;18.00;92.50
22996;DHT22;11664;49.774;8.650;2023-06-14T06:23:54;18.00;91.70
22996;DHT22;11664;49.774;8.650;2023-06-14T06:26:22;18.10;92.00
22996;DHT22;11664;49.774;8.650;2023-06-14T06:28:48;18.10;92.10
22996;DHT22;11664;49.774;8.650;2023-06-14T06:31:13;18.20;91.90
22996;DHT22;11664;49.774;8.650;2023-06-14T06:33:39;18.20;92.00
22996;DHT22;11664;49.774;8.650;2023-06-14T06:36:05;18.20;91.80
22996;DHT22;11664;49.774;8.650;2023-06-14T06:38:30;18.30;91.90
22996;DHT22;11664;49.774;8.650;2023-06-14T06:40:56;18.40;91.80
22996;DHT22;11664;49.774;8.650;2023-06-14T06:43:22;18.40;91.40
22996;DHT22;11664;49.774;8.650;2023-06-14T06:45:47;18.50;91.20
22996;DHT22;11664;49.774;8.650;2023-06-14T06:48:13;18.50;91.50
22996;DHT22;11664;49.774;8.650;2023-06-14T06:50:39;18.60;91.30
22996;DHT22;11664;49.774;8.650;2023-06-14T06:53:04;18.60;91.60
22996;DHT22;11664;49.774;8.650;2023-06-14T06:55:30;18.60;91.30
22996;DHT22;11664;49.774;8.650;2023-06-14T06:57:56;18.60;91.20
22996;DHT22;11664;49.774;8.650;2023-06-14T07:00:21;18.70;91.30
22996;DHT22;11664;49.774;8.650;2023-06-14T07:02:47;18.70;91.20
22996;DHT22;11664;49.774;8.650;2023-06-14T07:05:13;18.80;91.20
22996;DHT22;11664;49.774;8.650;2023-06-14T07:07:39;18.90;91.40
22996;DHT22;11664;49.774;8.650;2023-06-14T07:10:04;18.90;91.50
22996;DHT22;11664;49.774;8.650;2023-06-14T07:12:33;18.90;91.20
22996;DHT22;11664;49.774;8.650;2023-06-14T07:15:01;19.00;91.90
22996;DHT22;11664;49.774;8.650;2023-06-14T07:17:26;19.00;91.30
22996;DHT22;11664;49.774;8.650;2023-06-14T07:19:52;19.00;91.30
22996;DHT22;11664;49.774;8.650;2023-06-14T07:22:19;19.10;91.90
22996;DHT22;11664;49.774;8.650;2023-06-14T07:24:45;19.20;91.20
22996;DHT22;11664;49.774;8.650;2023-06-14T07:27:10;19.20;91.20
22996;DHT22;11664;49.774;8.650;2023-06-14T07:29:38;19.30;91.70
22996;DHT22;11664;49.774;8.650;2023-06-14T07:32:04;19.30;91.10
22996;DHT22;11664;49.774;8.650;2023-06-14T07:34:30;19.30;90.50
22996;DHT22;11664;49.774;8.650;2023-06-14T07:36:55;19.40;91.30
22996;DHT22;11664;49.774;8.650;2023-06-14T07:39:21;19.50;91.00
22996;DHT22;11664;49.774;8.650;2023-06-14T07:41:47;19.60;90.60
22996;DHT22;11664;49.774;8.650;2023-06-14T07:44:12;19.80;90.20
22996;DHT22;11664;49.774;8.650;2023-06-14T07:46:38;19.70;88.80
22996;DHT22;11664;49.774;8.650;2023-06-14T07:49:04;19.80;90.30
22996;DHT22;11664;49.774;8.650;2023-06-14T07:51:30;20.00;89.80
22996;DHT22;11664;49.774;8.650;2023-06-14T07:53:55;20.10;88.50
22996;DHT22;11664;49.774;8.650;2023-06-14T07:56:21;20.20;87.60
22996;DHT22;11664;49.774;8.650;2023-06-14T07:58:48;20.20;87.30
22996;DHT22;11664;49.774;8.650;2023-06-14T08:01:13;20.20;87.30
22996;DHT22;11664;49.774;8.650;2023-06-14T08:03:39;20.10;87.60
22996;DHT22;11664;49.774;8.650;2023-06-14T08:06:05;20.10;88.00
22996;DHT22;11664;49.774;8.650;2023-06-14T08:08:31;20.40;88.10
22996;DHT22;11664;49.774;8.650;2023-06-14T08:10:57;20.50;87.30
22996;DHT22;11664;49.774;8.650;2023-06-14T08:13:22;20.70;86.30
22996;DHT22;11664;49.774;8.650;2023-06-14T08:15:48;20.40;85.40
22996;DHT22;11664;49.774;8.650;2023-06-14T08:18:13;20.70;84.90
22996;DHT22;11664;49.774;8.650;2023-06-14T08:20:39;20.70;84.90
22996;DHT22;11664;49.774;8.650;2023-06-14T08:23:05;20.80;84.10
22996;DHT22;11664;49.774;8.650;2023-06-14T08:25:30;20.90;84.10
22996;DHT22;11664;49.774;8.650;2023-06-14T08:27:56;20.90;82.30
22996;DHT22;11664;49.774;8.650;2023-06-14T08:30:22;20.80;83.10
22996;DHT22;11664;49.774;8.650;2023-06-14T08:32:47;20.60;82.80
22996;DHT22;11664;49.774;8.650;2023-06-14T08:35:13;20.90;83.90
22996;DHT22;11664;49.774;8.650;2023-06-14T08:37:42;21.30;83.00
22996;DHT22;11664;49.774;8.650;2023-06-14T08:40:18;21.30;81.90
22996;DHT22;11664;49.774;8.650;2023-06-14T08:42:44;21.10;84.00
22996;DHT22;11664;49.774;8.650;2023-06-14T08:45:11;21.30;83.10
22996;DHT22;11664;49.774;8.650;2023-06-14T08:47:37;21.60;81.50
22996;DHT22;11664;49.774;8.650;2023-06-14T08:50:03;21.30;82.00
22996;DHT22;11664;49.774;8.650;2023-06-14T08:52:32;21.30;81.00
22996;DHT22;11664;49.774;8.650;2023-06-14T08:54:59;21.50;81.00
22996;DHT22;11664;49.774;8.650;2023-06-14T08:57:26;21.40;80.50
22996;DHT22;11664;49.774;8.650;2023-06-14T08:59:56;21.60;80.50
22996;DHT22;11664;49.774;8.650;2023-06-14T09:02:22;21.90;79.50
22996;DHT22;11664;49.774;8.650;2023-06-14T09:04:48;21.90;78.30
22996;DHT22;11664;49.774;8.650;2023-06-14T09:07:15;21.70;79.40
22996;DHT22;11664;49.774;8.650;2023-06-14T09:09:41;21.80;79.70
22996;DHT22;11664;49.774;8.650;2023-06-14T09:12:16;21.60;79.20
22996;DHT22;11664;49.774;8.650;2023-06-14T09:14:42;22.00;77.50
22996;DHT22;11664;49.774;8.650;2023-06-14T09:17:07;22.00;77.90
22996;DHT22;11664;49.774;8.650;2023-06-14T09:19:34;22.00;75.60
22996;DHT22;11664;49.774;8.650;2023-06-14T09:22:00;21.90;74.30
22996;DHT22;11664;49.774;8.650;2023-06-14T09:24:26;22.30;75.10
22996;DHT22;11664;49.774;8.650;2023-06-14T09:26:51;22.50;73.60
22996;DHT22;11664;49.774;8.650;2023-06-14T09:29:18;22.30;73.30
22996;DHT22;11664;49.774;8.650;2023-06-14T09:31:46;22.10;74.10
22996;DHT22;11664;49.774;8.650;2023-06-14T09:34:12;22.00;74.50
22996;DHT22;11664;49.774;8.650;2023-06-14T09:36:39;22.10;73.80
22996;DHT22;11664;49.774;8.650;2023-06-14T09:39:05;22.20;69.90
22996;DHT22;11664;49.774;8.650;2023-06-14T09:41:37;22.00;72.00
22996;DHT22;11664;49.774;8.650;2023-06-14T09:44:05;22.00;70.70
22996;DHT22;11664;49.774;8.650;2023-06-14T09:46:32;22.30;72.00
22996;DHT22;11664;49.774;8.650;2023-06-14T09:48:58;22.60;72.10
22996;DHT22;11664;49.774;8.650;2023-06-14T09:51:24;23.10;72.60
22996;DHT22;11664;49.774;8.650;2023-06-14T09:53:50;22.60;70.40
22996;DHT22;11664;49.774;8.650;2023-06-14T09:56:37;22.70;71.90
22996;DHT22;11664;49.774;8.650;2023-06-14T09:59:05;23.20;70.50
22996;DHT22;11664;49.774;8.650;2023-06-14T10:01:33;23.20;70.80
22996;DHT22;11664;49.774;8.650;2023-06-14T10:04:03;22.90;70.90
22996;DHT22;11664;49.774;8.650;2023-06-14T10:06:29;23.00;71.20
22996;DHT22;11664;49.774;8.650;2023-06-14T10:08:58;23.50;70.20
22996;DHT22;11664;49.774;8.650;2023-06-14T10:11:26;23.20;69.40
22996;DHT22;11664;49.774;8.650;2023-06-14T10:13:52;23.40;69.80
22996;DHT22;11664;49.774;8.650;2023-06-14T10:16:39;24.10;70.00
22996;DHT22;11664;49.774;8.650;2023-06-14T10:19:20;23.60;69.60
22996;DHT22;11664;49.774;8.650;2023-06-14T10:22:02;23.40;70.70
22996;DHT22;11664;49.774;8.650;2023-06-14T10:24:33;23.30;71.60
22996;DHT22;11664;49.774;8.650;2023-06-14T10:26:59;23.40;71.00
22996;DHT22;11664;49.774;8.650;2023-06-14T10:29:27;24.00;69.70
22996;DHT22;11664;49.774;8.650;2023-06-14T10:31:58;24.10;70.00
22996;DHT22;11664;49.774;8.650;2023-06-14T10:34:29;24.00;68.80
22996;DHT22;11664;49.774;8.650;2023-06-14T10:37:12;24.50;70.40
22996;DHT22;11664;49.774;8.650;2023-06-14T10:39:42;25.50;69.00
22996;DHT22;11664;49.774;8.650;2023-06-14T10:42:08;26.20;68.30
22996;DHT22;11664;49.774;8.650;2023-06-14T10:44:41;25.20;65.40
22996;DHT22;11664;49.774;8.650;2023-06-14T10:47:31;25.20;66.10
22996;DHT22;11664;49.774;8.650;2023-06-14T10:50:07;25.50;67.40
22996;DHT22;11664;49.774;8.650;2023-06-14T10:52:38;26.30;65.30
22996;DHT22;11664;49.774;8.650;2023-06-14T10:55:17;26.30;64.40
22996;DHT22;11664;49.774;8.650;2023-06-14T11:00:17;25.50;65.10
22996;DHT22;11664;49.774;8.650;2023-06-14T11:05:52;26.10;66.50
22996;DHT22;11664;49.774;8.650;2023-06-14T11:10:54;26.60;64.40
22996;DHT22;11664;49.774;8.650;2023-06-14T11:13:25;27.10;64.10
22996;DHT22;11664;49.774;8.650;2023-06-14T11:15:51;27.10;62.20
22996;DHT22;11664;49.774;8.650;2023-06-14T11:18:18;27.10;64.10
22996;DHT22;11664;49.774;8.650;2023-06-14T11:20:46;26.70;63.30
22996;DHT22;11664;49.774;8.650;2023-06-14T11:23:12;27.20;63.80
22996;DHT22;11664;49.774;8.650;2023-06-14T11:25:37;26.80;63.70
22996;DHT22;11664;49.774;8.650;2023-06-14T11:28:03;26.00;63.50
22996;DHT22;11664;49.774;8.650;2023-06-14T11:30:28;25.20;65.00
22996;DHT22;11664;49.774;8.650;2023-06-14T11:32:55;25.70;64.40
22996;DHT22;11664;49.774;8.650;2023-06-14T11:35:24;25.20;64.10
22996;DHT22;11664;49.774;8.650;2023-06-14T11:37:56;24.20;65.70
22996;DHT22;11664;49.774;8.650;2023-06-14T11:40:26;24.00;66.50
22996;DHT22;11664;49.774;8.650;2023-06-14T11:43:00;24.20;68.20
22996;DHT22;11664;49.774;8.650;2023-06-14T11:45:26;24.30;67.90
22996;DHT22;11664;49.774;8.650;2023-06-14T11:47:55;24.10;69.60
22996;DHT22;11664;49.774;8.650;2023-06-14T11:50:22;24.40;69.20
22996;DHT22;11664;49.774;8.650;2023-06-14T11:52:57;26.10;67.10
22996;DHT22;11664;49.774;8.650;2023-06-14T11:55:25;25.60;62.60
22996;DHT22;11664;49.774;8.650;2023-06-14T11:57:53;24.30;63.90
22996;DHT22;11664;49.774;8.650;2023-06-14T12:00:19;24.00;66.90
22996;DHT22;11664;49.774;8.650;2023-06-14T12:02:53;24.40;66.60
22996;DHT22;11664;49.774;8.650;2023-06-14T12:05:21;24.20;66.50
22996;DHT22;11664;49.774;8.650;2023-06-14T12:07:47;24.50;68.40
22996;DHT22;11664;49.774;8.650;2023-06-14T12:10:14;24.10;67.00
22996;DHT22;11664;49.774;8.650;2023-06-14T12:12:40;24.50;68.50
22996;DHT22;11664;49.774;8.650;2023-06-14T12:15:09;25.90;65.20
22996;DHT22;11664;49.774;8.650;2023-06-14T12:17:38;27.00;63.80
22996;DHT22;11664;49.774;8.650;2023-06-14T12:20:11;26.90;59.60
22996;DHT22;11664;49.774;8.650;2023-06-14T12:22:59;27.40;60.70
22996;DHT22;11664;49.774;8.650;2023-06-14T12:25:30;26.50;60.50
22996;DHT22;11664;49.774;8.650;2023-06-14T12:27:57;26.40;63.80
22996;DHT22;11664;49.774;8.650;2023-06-14T12:30:23;26.50;60.00
22996;DHT22;11664;49.774;8.650;2023-06-14T12:32:48;25.20;61.40
22996;DHT22;11664;49.774;8.650;2023-06-14T12:35:15;24.80;63.70
22996;DHT22;11664;49.774;8.650;2023-06-14T12:37:40;25.30;62.20
22996;DHT22;11664;49.774;8.650;2023-06-14T12:40:06;26.80;62.90
22996;DHT22;11664;49.774;8.650;2023-06-14T12:42:33;27.00;60.90
22996;DHT22;11664;49.774;8.650;2023-06-14T12:44:59;27.30;59.10
22996;DHT22;11664;49.774;8.650;2023-06-14T12:47:25;27.10;61.30
22996;DHT22;11664;49.774;8.650;2023-06-14T12:49:50;26.10;59.60
22996;DHT22;11664;49.774;8.650;2023-06-14T12:52:16;27.50;61.40
22996;DHT22;11664;49.774;8.650;2023-06-14T12:54:41;27.50;58.70
22996;DHT22;11664;49.774;8.650;2023-06-14T12:57:07;28.30;59.40
22996;DHT22;11664;49.774;8.650;2023-06-14T12:59:33;27.90;59.80
22996;DHT22;11664;49.774;8.650;2023-06-14T13:02:09;27.60;59.40
22996;DHT22;11664;49.774;8.650;2023-06-14T13:04:36;27.50;58.30
22996;DHT22;11664;49.774;8.650;2023-06-14T13:07:01;26.70;58.90
22996;DHT22;11664;49.774;8.650;2023-06-14T13:09:27;26.70;60.30
22996;DHT22;11664;49.774;8.650;2023-06-14T13:11:52;27.20;58.60
22996;DHT22;11664;49.774;8.650;2023-06-14T13:14:18;27.60;59.80
22996;DHT22;11664;49.774;8.650;2023-06-14T13:16:44;27.90;58.10
22996;DHT22;11664;49.774;8.650;2023-06-14T13:19:09;27.60;57.70
22996;DHT22;11664;49.774;8.650;2023-06-14T13:21:35;26.80;58.80
22996;DHT22;11664;49.774;8.650;2023-06-14T13:24:00;26.30;59.10
22996;DHT22;11664;49.774;8.650;2023-06-14T13:26:26;26.70;60.30
22996;DHT22;11664;49.774;8.650;2023-06-14T13:28:52;27.40;58.50
22996;DHT22;11664;49.774;8.650;2023-06-14T13:31:17;27.60;57.70
22996;DHT22;11664;49.774;8.650;2023-06-14T13:33:43;27.40;56.90
22996;DHT22;11664;49.774;8.650;2023-06-14T13:36:08;28.40;57.50
22996;DHT22;11664;49.774;8.650;2023-06-14T13:38:34;28.70;57.40
22996;DHT22;11664;49.774;8.650;2023-06-14T13:40:59;28.90;55.90
22996;DHT22;11664;49.774;8.650;2023-06-14T13:43:25;28.10;58.30
22996;DHT22;11664;49.774;8.650;2023-06-14T13:45:50;26.80;58.50
22996;DHT22;11664;49.774;8.650;2023-06-14T13:48:16;27.20;59.00
22996;DHT22;11664;49.774;8.650;2023-06-14T13:50:42;25.60;58.60
22996;DHT22;11664;49.774;8.650;2023-06-14T13:53:07;26.00;60.30
22996;DHT22;11664;49.774;8.650;2023-06-14T13:55:33;25.40;60.60
22996;DHT22;11664;49.774;8.650;2023-06-14T13:57:58;26.50;59.50
22996;DHT22;11664;49.774;8.650;2023-06-14T14:00:24;27.30;58.60
22996;DHT22;11664;49.774;8.650;2023-06-14T14:02:50;27.00;57.40
22996;DHT22;11664;49.774;8.650;2023-06-14T14:05:16;27.40;57.40
22996;DHT22;11664;49.774;8.650;2023-06-14T14:07:41;26.40;56.80
22996;DHT22;11664;49.774;8.650;2023-06-14T14:10:07;26.10;58.50
22996;DHT22;11664;49.774;8.650;2023-06-14T14:12:34;25.60;59.20
22996;DHT22;11664;49.774;8.650;2023-06-14T14:14:59;25.90;60.00
22996;DHT22;11664;49.774;8.650;2023-06-14T14:17:25;25.50;59.70
22996;DHT22;11664;49.774;8.650;2023-06-14T14:19:51;25.80;62.10
22996;DHT22;11664;49.774;8.650;2023-06-14T14:22:17;27.20;60.80
22996;DHT22;11664;49.774;8.650;2023-06-14T14:24:42;28.60;59.10
22996;DHT22;11664;49.774;8.650;2023-06-14T14:27:08;28.90;57.30
22996;DHT22;11664;49.774;8.650;2023-06-14T14:29:33;29.10;55.00
22996;DHT22;11664;49.774;8.650;2023-06-14T14:31:59;29.10;55.60
22996;DHT22;11664;49.774;8.650;2023-06-14T14:34:25;27.70;56.50
22996;DHT22;11664;49.774;8.650;2023-06-14T14:36:50;27.80;57.90
22996;DHT22;11664;49.774;8.650;2023-06-14T14:39:16;26.90;58.50
22996;DHT22;11664;49.774;8.650;2023-06-14T14:41:41;26.30;57.80
22996;DHT22;11664;49.774;8.650;2023-06-14T14:44:07;26.00;58.30
22996;DHT22;11664;49.774;8.650;2023-06-14T14:46:32;27.40;59.00
22996;DHT22;11664;49.774;8.650;2023-06-14T14:48:59;28.70;57.60
22996;DHT22;11664;49.774;8.650;2023-06-14T14:51:25;28.70;56.50
22996;DHT22;11664;49.774;8.650;2023-06-14T14:53:50;29.80;54.40
22996;DHT22;11664;49.774;8.650;2023-06-14T14:56:16;29.80;55.10
22996;DHT22;11664;49.774;8.650;2023-06-14T14:58:42;28.40;54.30
22996;DHT22;11664;49.774;8.650;2023-06-14T15:01:08;27.20;57.60
22996;DHT22;11664;49.774;8.650;2023-06-14T15:03:33;26.50;57.90
22996;DHT22;11664;49.774;8.650;2023-06-14T15:05:59;27.10;59.70
22996;DHT22;11664;49.774;8.650;2023-06-14T15:08:24;28.10;57.60
22996;DHT22;11664;49.774;8.650;2023-06-14T15:10:50;28.50;55.40
22996;DHT22;11664;49.774;8.650;2023-06-14T15:13:16;28.70;54.00
22996;DHT22;11664;49.774;8.650;2023-06-14T15:15:42;30.10;54.30
22996;DHT22;11664;49.774;8.650;2023-06-14T15:18:07;31.10;52.60
22996;DHT22;11664;49.774;8.650;2023-06-14T15:20:34;29.70;52.00
22996;DHT22;11664;49.774;8.650;2023-06-14T15:23:00;29.80;52.80
22996;DHT22;11664;49.774;8.650;2023-06-14T15:25:29;30.50;52.70
22996;DHT22;11664;49.774;8.650;2023-06-14T15:27:55;31.20;50.90
22996;DHT22;11664;49.774;8.650;2023-06-14T15:30:21;29.80;52.30
22996;DHT22;11664;49.774;8.650;2023-06-14T15:32:47;29.10;52.20
22996;DHT22;11664;49.774;8.650;2023-06-14T15:35:14;30.90;50.10
22996;DHT22;11664;49.774;8.650;2023-06-14T15:37:40;30.50;49.80
22996;DHT22;11664;49.774;8.650;2023-06-14T15:40:06;31.80;50.30
22996;DHT22;11664;49.774;8.650;2023-06-14T15:42:31;32.30;49.60
22996;DHT22;11664;49.774;8.650;2023-06-14T15:44:57;31.70;50.10
22996;DHT22;11664;49.774;8.650;2023-06-14T15:47:23;29.50;50.90
22996;DHT22;11664;49.774;8.650;2023-06-14T15:49:49;29.50;53.10